sensor_id;sensor_type;location;lat;lon;timestamp;pressure;altitude;pressure_sealevel;temperature;humidity
12360;BME280;6244;51.460;7.090;2023-05-18T00:02:16;101725.50;;;10.96;52.18
12360;BME280;6244;51.460;7.090;2023-05-18T00:07:13;101729.19;;;10.91;52.67
12360;BME280;6244;51.460;7.090;2023-05-18T00:12:09;101730.03;;;10.66;52.57
12360;BME280;6244;51.460;7.090;2023-05-18T00:17:07;101722.97;;;10.43;53.88
12360;BME280;6244;51.460;7.090;2023-05-18T00:22:04;101720.56;;;10.62;53.02
12360;BME280;6244;51.460;7.090;2023-05-18T00:27:02;101728.75;;;10.53;52.92
12360;BME280;6244;51.460;7.090;2023-05-18T00:31:58;101731.25;;;10.57;53.00
12360;BME280;6244;51.460;7.090;2023-05-18T00:36:56;101734.41;;;10.67;53.55
12360;BME280;6244;51.460;7.090;2023-05-18T00:41:53;101736.69;;;10.76;53.40
12360;BME280;6244;51.460;7.090;2023-05-18T00:46:49;101729.06;;;10.70;53.59
12360;BME280;6244;51.460;7.090;2023-05-18T00:51:46;101730.66;;;10.74;53.27
12360;BME280;6244;51.460;7.090;2023-05-18T00:56:44;101735.41;;;10.63;53.48
12360;BME280;6244;51.460;7.090;2023-05-18T01:01:42;101732.84;;;10.62;54.04
12360;BME280;6244;51.460;7.090;2023-05-18T01:06:41;101727.75;;;10.57;53.70
12360;BME280;6244;51.460;7.090;2023-05-18T01:11:46;101726.25;;;10.50;54.09
12360;BME280;6244;51.460;7.090;2023-05-18T01:16:50;101728.06;;;10.48;54.16
12360;BME280;6244;51.460;7.090;2023-05-18T01:21:55;101735.19;;;10.44;54.35
12360;BME280;6244;51.460;7.090;2023-05-18T01:26:55;101738.97;;;10.36;54.26
12360;BME280;6244;51.460;7.090;2023-05-18T01:31:53;101740.72;;;10.35;54.39
12360;BME280;6244;51.460;7.090;2023-05-18T01:36:50;101731.31;;;10.28;54.39
12360;BME280;6244;51.460;7.090;2023-05-18T01:41:51;101740.91;;;10.31;54.31
12360;BME280;6244;51.460;7.090;2023-05-18T01:46:57;101734.16;;;10.22;54.19
12360;BME280;6244;51.460;7.090;2023-05-18T01:51:56;101739.63;;;10.14;54.44
12360;BME280;6244;51.460;7.090;2023-05-18T01:56:54;101736.13;;;10.14;54.52
12360;BME280;6244;51.460;7.090;2023-05-18T02:01:56;101738.81;;;10.12;54.68
12360;BME280;6244;51.460;7.090;2023-05-18T02:06:54;101740.97;;;9.99;55.11
12360;BME280;6244;51.460;7.090;2023-05-18T02:11:51;101730.56;;;9.96;55.23
12360;BME280;6244;51.460;7.090;2023-05-18T02:16:47;101720.41;;;9.86;55.07
12360;BME280;6244;51.460;7.090;2023-05-18T02:21:48;101735.28;;;9.85;55.58
12360;BME280;6244;51.460;7.090;2023-05-18T02:26:45;101738.72;;;9.87;55.19
12360;BME280;6244;51.460;7.090;2023-05-18T02:31:41;101735.56;;;9.76;55.85
12360;BME280;6244;51.460;7.090;2023-05-18T02:36:38;101742.34;;;9.83;55.40
12360;BME280;6244;51.460;7.090;2023-05-18T02:41:38;101740.06;;;9.73;55.77
12360;BME280;6244;51.460;7.090;2023-05-18T02:46:34;101737.59;;;9.66;55.78
12360;BME280;6244;51.460;7.090;2023-05-18T02:51:31;101742.22;;;9.58;56.39
12360;BME280;6244;51.460;7.090;2023-05-18T02:56:27;101747.59;;;9.54;56.16
12360;BME280;6244;51.460;7.090;2023-05-18T03:01:25;101745.66;;;9.60;56.42
12360;BME280;6244;51.460;7.090;2023-05-18T03:06:22;101745.91;;;9.51;56.43
12360;BME280;6244;51.460;7.090;2023-05-18T03:11:20;101741.09;;;9.37;56.42
12360;BME280;6244;51.460;7.090;2023-05-18T03:16:17;101752.59;;;9.32;56.53
12360;BME280;6244;51.460;7.090;2023-05-18T03:21:15;101756.66;;;9.42;56.95
12360;BME280;6244;51.460;7.090;2023-05-18T03:26:11;101754.22;;;9.36;56.89
12360;BME280;6244;51.460;7.090;2023-05-18T03:31:08;101755.94;;;9.37;56.40
12360;BME280;6244;51.460;7.090;2023-05-18T03:36:05;101749.94;;;9.33;56.49
12360;BME280;6244;51.460;7.090;2023-05-18T03:41:03;101749.13;;;9.31;56.66
12360;BME280;6244;51.460;7.090;2023-05-18T03:46:00;101744.84;;;9.27;56.97
12360;BME280;6244;51.460;7.090;2023-05-18T03:50:56;101750.19;;;9.24;57.11
12360;BME280;6244;51.460;7.090;2023-05-18T03:55:53;101753.81;;;9.20;56.88
12360;BME280;6244;51.460;7.090;2023-05-18T04:00:52;101750.28;;;9.21;56.83
12360;BME280;6244;51.460;7.090;2023-05-18T04:05:49;101752.84;;;9.23;57.24
12360;BME280;6244;51.460;7.090;2023-05-18T04:10:47;101755.53;;;9.21;57.17
12360;BME280;6244;51.460;7.090;2023-05-18T04:15:43;101758.09;;;9.23;57.48
12360;BME280;6244;51.460;7.090;2023-05-18T04:20:43;101765.84;;;9.26;57.69
12360;BME280;6244;51.460;7.090;2023-05-18T04:25:40;101762.44;;;9.24;57.38
12360;BME280;6244;51.460;7.090;2023-05-18T04:30:37;101765.91;;;9.24;57.70
12360;BME280;6244;51.460;7.090;2023-05-18T04:35:34;101767.63;;;9.25;58.43
12360;BME280;6244;51.460;7.090;2023-05-18T04:40:32;101773.63;;;9.29;58.05
12360;BME280;6244;51.460;7.090;2023-05-18T04:45:32;101779.81;;;9.26;58.37
12360;BME280;6244;51.460;7.090;2023-05-18T04:50:29;101782.38;;;9.28;59.04
12360;BME280;6244;51.460;7.090;2023-05-18T04:55:26;101785.66;;;9.36;59.26
12360;BME280;6244;51.460;7.090;2023-05-18T05:00:25;101781.31;;;9.35;59.17
12360;BME280;6244;51.460;7.090;2023-05-18T05:05:24;101783.84;;;9.38;59.33
12360;BME280;6244;51.460;7.090;2023-05-18T05:10:21;101780.47;;;9.34;59.41
12360;BME280;6244;51.460;7.090;2023-05-18T05:15:18;101780.41;;;9.36;59.40
12360;BME280;6244;51.460;7.090;2023-05-18T05:20:16;101782.13;;;9.37;59.55
12360;BME280;6244;51.460;7.090;2023-05-18T05:25:14;101789.81;;;9.12;59.78
12360;BME280;6244;51.460;7.090;2023-05-18T05:30:11;101798.38;;;9.19;60.30
12360;BME280;6244;51.460;7.090;2023-05-18T05:35:08;101793.72;;;9.28;60.24
12360;BME280;6244;51.460;7.090;2023-05-18T05:40:07;101787.03;;;9.49;59.51
12360;BME280;6244;51.460;7.090;2023-05-18T05:45:05;101784.03;;;9.32;60.24
12360;BME280;6244;51.460;7.090;2023-05-18T05:50:03;101790.00;;;9.37;59.85
12360;BME280;6244;51.460;7.090;2023-05-18T05:54:59;101797.31;;;8.93;61.13
12360;BME280;6244;51.460;7.090;2023-05-18T05:59:57;101800.78;;;8.94;61.59
12360;BME280;6244;51.460;7.090;2023-05-18T06:04:54;101802.41;;;8.98;61.09
12360;BME280;6244;51.460;7.090;2023-05-18T06:09:50;101799.22;;;9.19;60.48
12360;BME280;6244;51.460;7.090;2023-05-18T06:14:47;101798.50;;;9.45;60.20
12360;BME280;6244;51.460;7.090;2023-05-18T06:19:44;101798.81;;;9.34;59.23
12360;BME280;6244;51.460;7.090;2023-05-18T06:24:41;101793.66;;;9.31;59.75
12360;BME280;6244;51.460;7.090;2023-05-18T06:29:37;101807.19;;;9.47;59.35
12360;BME280;6244;51.460;7.090;2023-05-18T06:34:34;101805.56;;;9.41;58.91
12360;BME280;6244;51.460;7.090;2023-05-18T06:39:33;101806.19;;;9.51;58.22
12360;BME280;6244;51.460;7.090;2023-05-18T06:44:29;101801.03;;;9.48;57.96
12360;BME280;6244;51.460;7.090;2023-05-18T06:49:26;101805.97;;;9.59;57.83
12360;BME280;6244;51.460;7.090;2023-05-18T06:54:22;101808.59;;;9.59;58.47
12360;BME280;6244;51.460;7.090;2023-05-18T06:59:20;101807.16;;;9.78;58.44
12360;BME280;6244;51.460;7.090;2023-05-18T07:04:17;101819.13;;;9.87;58.88
12360;BME280;6244;51.460;7.090;2023-05-18T07:09:14;101810.81;;;10.02;56.88
12360;BME280;6244;51.460;7.090;2023-05-18T07:14:11;101815.78;;;10.11;56.40
12360;BME280;6244;51.460;7.090;2023-05-18T07:19:09;101820.56;;;10.26;56.75
12360;BME280;6244;51.460;7.090;2023-05-18T07:24:05;101816.75;;;10.37;55.89
12360;BME280;6244;51.460;7.090;2023-05-18T07:29:02;101816.53;;;10.44;56.50
12360;BME280;6244;51.460;7.090;2023-05-18T07:33:58;101824.91;;;10.55;57.33
12360;BME280;6244;51.460;7.090;2023-05-18T07:38:57;101818.00;;;10.79;56.38
12360;BME280;6244;51.460;7.090;2023-05-18T07:43:54;101819.63;;;11.08;56.28
12360;BME280;6244;51.460;7.090;2023-05-18T07:48:50;101817.44;;;11.46;54.87
12360;BME280;6244;51.460;7.090;2023-05-18T07:53:47;101811.44;;;11.66;54.20
12360;BME280;6244;51.460;7.090;2023-05-18T07:58:45;101807.97;;;11.89;53.54
12360;BME280;6244;51.460;7.090;2023-05-18T08:03:41;101804.03;;;12.22;52.51
12360;BME280;6244;51.460;7.090;2023-05-18T08:08:38;101802.19;;;12.68;51.64
12360;BME280;6244;51.460;7.090;2023-05-18T08:13:34;101797.94;;;14.76;45.62
12360;BME280;6244;51.460;7.090;2023-05-18T08:18:32;101797.28;;;15.40;42.92
12360;BME280;6244;51.460;7.090;2023-05-18T08:23:29;101784.22;;;15.70;43.06
12360;BME280;6244;51.460;7.090;2023-05-18T08:28:25;101782.53;;;16.62;39.28
12360;BME280;6244;51.460;7.090;2023-05-18T08:33:22;101771.59;;;17.83;38.42
12360;BME280;6244;51.460;7.090;2023-05-18T08:38:19;101778.28;;;16.75;39.63
12360;BME280;6244;51.460;7.090;2023-05-18T08:43:20;101782.34;;;16.35;39.94
12360;BME280;6244;51.460;7.090;2023-05-18T08:48:21;101780.34;;;16.54;39.15
12360;BME280;6244;51.460;7.090;2023-05-18T08:53:20;101775.50;;;17.35;36.32
12360;BME280;6244;51.460;7.090;2023-05-18T08:58:18;101774.09;;;18.40;36.37
12360;BME280;6244;51.460;7.090;2023-05-18T09:03:15;101764.16;;;17.76;36.60
12360;BME280;6244;51.460;7.090;2023-05-18T09:08:12;101757.00;;;17.90;36.81
12360;BME280;6244;51.460;7.090;2023-05-18T09:13:10;101757.88;;;17.34;37.95
12360;BME280;6244;51.460;7.090;2023-05-18T09:18:08;101764.72;;;18.62;35.80
12360;BME280;6244;51.460;7.090;2023-05-18T09:23:04;101757.13;;;18.56;35.69
12360;BME280;6244;51.460;7.090;2023-05-18T09:28:01;101748.38;;;19.44;32.37
12360;BME280;6244;51.460;7.090;2023-05-18T09:33:00;101749.97;;;19.72;33.99
12360;BME280;6244;51.460;7.090;2023-05-18T09:38:02;101755.09;;;19.50;33.73
12360;BME280;6244;51.460;7.090;2023-05-18T09:43:05;101742.63;;;20.23;31.76
12360;BME280;6244;51.460;7.090;2023-05-18T09:48:06;101741.72;;;19.88;33.60
12360;BME280;6244;51.460;7.090;2023-05-18T09:53:05;101747.81;;;19.77;33.90
12360;BME280;6244;51.460;7.090;2023-05-18T09:58:02;101742.75;;;19.36;32.67
12360;BME280;6244;51.460;7.090;2023-05-18T10:02:59;101756.56;;;18.11;36.39
12360;BME280;6244;51.460;7.090;2023-05-18T10:07:57;101755.28;;;19.47;34.20
12360;BME280;6244;51.460;7.090;2023-05-18T10:12:54;101749.59;;;20.61;32.25
12360;BME280;6244;51.460;7.090;2023-05-18T10:17:55;101743.94;;;20.42;33.90
12360;BME280;6244;51.460;7.090;2023-05-18T10:22:54;101739.84;;;21.06;32.21
12360;BME280;6244;51.460;7.090;2023-05-18T10:27:55;101727.69;;;20.21;32.16
12360;BME280;6244;51.460;7.090;2023-05-18T10:32:53;101726.31;;;20.63;32.77
12360;BME280;6244;51.460;7.090;2023-05-18T10:37:50;101724.72;;;21.40;31.03
12360;BME280;6244;51.460;7.090;2023-05-18T10:42:49;101710.97;;;21.00;31.40
12360;BME280;6244;51.460;7.090;2023-05-18T10:47:49;101708.91;;;21.04;31.50
12360;BME280;6244;51.460;7.090;2023-05-18T10:52:50;101712.69;;;21.24;31.97
12360;BME280;6244;51.460;7.090;2023-05-18T10:57:51;101706.63;;;21.44;31.30
12360;BME280;6244;51.460;7.090;2023-05-18T11:02:51;101701.75;;;21.72;30.90
12360;BME280;6244;51.460;7.090;2023-05-18T11:07:49;101699.59;;;20.98;31.92
12360;BME280;6244;51.460;7.090;2023-05-18T11:12:45;101697.78;;;21.44;31.06
12360;BME280;6244;51.460;7.090;2023-05-18T11:17:42;101696.44;;;21.92;30.42
12360;BME280;6244;51.460;7.090;2023-05-18T11:22:41;101698.19;;;22.25;28.26
12360;BME280;6244;51.460;7.090;2023-05-18T11:27:40;101694.97;;;21.99;28.93
12360;BME280;6244;51.460;7.090;2023-05-18T11:32:36;101688.44;;;21.49;30.73
12360;BME280;6244;51.460;7.090;2023-05-18T11:37:49;101682.72;;;22.08;30.85
12360;BME280;6244;51.460;7.090;2023-05-18T11:42:56;101677.56;;;21.84;26.74
12360;BME280;6244;51.460;7.090;2023-05-18T11:47:56;101676.16;;;22.75;29.01
12360;BME280;6244;51.460;7.090;2023-05-18T11:52:59;101676.78;;;21.93;29.28
12360;BME280;6244;51.460;7.090;2023-05-18T11:57:56;101661.94;;;21.57;30.86
12360;BME280;6244;51.460;7.090;2023-05-18T12:02:54;101661.34;;;21.20;31.29
12360;BME280;6244;51.460;7.090;2023-05-18T12:07:52;101657.41;;;20.11;33.54
12360;BME280;6244;51.460;7.090;2023-05-18T12:12:51;101660.09;;;18.88;34.94
12360;BME280;6244;51.460;7.090;2023-05-18T12:17:49;101655.13;;;18.31;36.23
12360;BME280;6244;51.460;7.090;2023-05-18T12:22:47;101662.78;;;18.23;37.97
12360;BME280;6244;51.460;7.090;2023-05-18T12:27:45;101652.97;;;18.11;37.38
12360;BME280;6244;51.460;7.090;2023-05-18T12:32:45;101655.81;;;18.08;37.75
12360;BME280;6244;51.460;7.090;2023-05-18T12:37:43;101654.16;;;17.80;39.73
12360;BME280;6244;51.460;7.090;2023-05-18T12:42:49;101648.34;;;17.87;39.34
12360;BME280;6244;51.460;7.090;2023-05-18T12:47:48;101645.78;;;17.86;40.26
12360;BME280;6244;51.460;7.090;2023-05-18T12:52:48;101643.91;;;18.01;37.21
12360;BME280;6244;51.460;7.090;2023-05-18T12:57:45;101647.84;;;18.08;39.13
12360;BME280;6244;51.460;7.090;2023-05-18T13:02:42;101638.72;;;17.99;39.02
12360;BME280;6244;51.460;7.090;2023-05-18T13:07:41;101621.81;;;17.73;38.25
12360;BME280;6244;51.460;7.090;2023-05-18T13:12:40;101620.41;;;17.68;38.64
12360;BME280;6244;51.460;7.090;2023-05-18T13:17:37;101621.94;;;17.57;39.74
12360;BME280;6244;51.460;7.090;2023-05-18T13:22:34;101608.94;;;17.94;39.53
12360;BME280;6244;51.460;7.090;2023-05-18T13:27:32;101613.22;;;17.70;38.98
12360;BME280;6244;51.460;7.090;2023-05-18T13:32:28;101619.41;;;17.83;40.58
12360;BME280;6244;51.460;7.090;2023-05-18T13:37:25;101613.59;;;17.90;37.91
12360;BME280;6244;51.460;7.090;2023-05-18T13:42:21;101611.22;;;17.59;40.20
12360;BME280;6244;51.460;7.090;2023-05-18T13:47:19;101595.19;;;17.60;39.30
12360;BME280;6244;51.460;7.090;2023-05-18T13:52:16;101587.41;;;17.72;39.65
12360;BME280;6244;51.460;7.090;2023-05-18T13:57:13;101589.41;;;17.68;40.43
12360;BME280;6244;51.460;7.090;2023-05-18T14:02:09;101573.78;;;17.64;38.78
12360;BME280;6244;51.460;7.090;2023-05-18T14:07:07;101567.69;;;17.76;41.24
12360;BME280;6244;51.460;7.090;2023-05-18T14:12:06;101566.06;;;18.00;40.96
12360;BME280;6244;51.460;7.090;2023-05-18T14:17:04;101563.66;;;17.83;39.25
12360;BME280;6244;51.460;7.090;2023-05-18T14:22:01;101563.25;;;17.76;39.55
12360;BME280;6244;51.460;7.090;2023-05-18T14:26:58;101560.03;;;17.71;39.57
12360;BME280;6244;51.460;7.090;2023-05-18T14:31:55;101548.47;;;17.58;39.35
12360;BME280;6244;51.460;7.090;2023-05-18T14:36:51;101551.09;;;17.45;39.92
12360;BME280;6244;51.460;7.090;2023-05-18T14:41:48;101547.94;;;17.53;40.23
12360;BME280;6244;51.460;7.090;2023-05-18T14:46:46;101550.94;;;17.34;42.60
12360;BME280;6244;51.460;7.090;2023-05-18T14:51:42;101552.25;;;17.41;40.10
12360;BME280;6244;51.460;7.090;2023-05-18T14:56:39;101543.72;;;17.36;40.38
12360;BME280;6244;51.460;7.090;2023-05-18T15:01:35;101547.44;;;17.33;40.01
12360;BME280;6244;51.460;7.090;2023-05-18T15:06:33;101544.88;;;17.32;40.27
12360;BME280;6244;51.460;7.090;2023-05-18T15:11:31;101542.88;;;17.36;40.20
12360;BME280;6244;51.460;7.090;2023-05-18T15:16:28;101542.81;;;17.23;42.02
12360;BME280;6244;51.460;7.090;2023-05-18T15:21:24;101541.34;;;17.19;39.77
12360;BME280;6244;51.460;7.090;2023-05-18T15:26:22;101544.41;;;17.13;40.90
12360;BME280;6244;51.460;7.090;2023-05-18T15:31:19;101540.28;;;17.21;42.12
12360;BME280;6244;51.460;7.090;2023-05-18T15:36:15;101547.59;;;17.18;40.70
12360;BME280;6244;51.460;7.090;2023-05-18T15:41:11;101547.84;;;17.00;40.89
12360;BME280;6244;51.460;7.090;2023-05-18T15:46:09;101538.56;;;16.93;40.92
12360;BME280;6244;51.460;7.090;2023-05-18T15:51:06;101536.28;;;16.73;41.47
12360;BME280;6244;51.460;7.090;2023-05-18T15:56:03;101523.41;;;16.67;40.98
12360;BME280;6244;51.460;7.090;2023-05-18T16:00:59;101524.38;;;16.66;42.33
12360;BME280;6244;51.460;7.090;2023-05-18T16:05:57;101522.28;;;16.71;41.87
12360;BME280;6244;51.460;7.090;2023-05-18T16:10:53;101515.09;;;16.73;41.35
12360;BME280;6244;51.460;7.090;2023-05-18T16:15:50;101517.16;;;16.82;40.48
12360;BME280;6244;51.460;7.090;2023-05-18T16:20:46;101517.69;;;16.75;40.70
12360;BME280;6244;51.460;7.090;2023-05-18T16:25:44;101509.25;;;16.68;41.93
12360;BME280;6244;51.460;7.090;2023-05-18T16:30:41;101507.44;;;16.54;41.63
12360;BME280;6244;51.460;7.090;2023-05-18T16:35:37;101506.84;;;16.49;42.18
12360;BME280;6244;51.460;7.090;2023-05-18T16:40:34;101508.56;;;16.36;42.34
12360;BME280;6244;51.460;7.090;2023-05-18T16:45:32;101510.84;;;16.13;42.83
12360;BME280;6244;51.460;7.090;2023-05-18T16:50:28;101510.34;;;16.07;43.19
12360;BME280;6244;51.460;7.090;2023-05-18T16:55:25;101506.41;;;15.84;43.56
12360;BME280;6244;51.460;7.090;2023-05-18T17:00:22;101506.19;;;15.73;43.73
12360;BME280;6244;51.460;7.090;2023-05-18T17:05:20;101505.00;;;15.78;42.38
12360;BME280;6244;51.460;7.090;2023-05-18T17:10:17;101508.56;;;15.63;43.10
12360;BME280;6244;51.460;7.090;2023-05-18T17:15:14;101515.06;;;15.42;44.59
12360;BME280;6244;51.460;7.090;2023-05-18T17:20:11;101510.44;;;15.45;45.26
12360;BME280;6244;51.460;7.090;2023-05-18T17:25:09;101502.06;;;15.37;44.21
12360;BME280;6244;51.460;7.090;2023-05-18T17:30:07;101500.22;;;15.23;45.84
12360;BME280;6244;51.460;7.090;2023-05-18T17:35:04;101500.78;;;15.14;44.21
12360;BME280;6244;51.460;7.090;2023-05-18T17:40:03;101497.50;;;15.09;45.29
12360;BME280;6244;51.460;7.090;2023-05-18T17:45:01;101497.59;;;15.08;46.17
12360;BME280;6244;51.460;7.090;2023-05-18T17:49:58;101500.09;;;14.95;44.70
12360;BME280;6244;51.460;7.090;2023-05-18T17:54:54;101497.00;;;14.87;45.29
12360;BME280;6244;51.460;7.090;2023-05-18T17:59:51;101512.78;;;14.73;45.79
12360;BME280;6244;51.460;7.090;2023-05-18T18:04:49;101506.91;;;14.67;46.22
12360;BME280;6244;51.460;7.090;2023-05-18T18:09:46;101511.56;;;14.62;45.59
12360;BME280;6244;51.460;7.090;2023-05-18T18:14:42;101510.59;;;14.48;46.60
12360;BME280;6244;51.460;7.090;2023-05-18T18:19:39;101517.03;;;14.42;46.81
12360;BME280;6244;51.460;7.090;2023-05-18T18:24:37;101509.22;;;14.40;46.21
12360;BME280;6244;51.460;7.090;2023-05-18T18:29:33;101502.09;;;14.25;46.59
12360;BME280;6244;51.460;7.090;2023-05-18T18:34:30;101523.16;;;14.09;46.76
12360;BME280;6244;51.460;7.090;2023-05-18T18:39:26;101521.38;;;14.10;48.10
12360;BME280;6244;51.460;7.090;2023-05-18T18:44:25;101526.34;;;13.99;47.80
12360;BME280;6244;51.460;7.090;2023-05-18T18:49:21;101529.22;;;13.94;48.30
12360;BME280;6244;51.460;7.090;2023-05-18T18:54:18;101534.81;;;13.88;49.06
12360;BME280;6244;51.460;7.090;2023-05-18T18:59:17;101526.59;;;13.77;48.75
12360;BME280;6244;51.460;7.090;2023-05-18T19:04:15;101534.81;;;13.71;49.38
12360;BME280;6244;51.460;7.090;2023-05-18T19:09:12;101534.41;;;13.61;49.08
12360;BME280;6244;51.460;7.090;2023-05-18T19:14:08;101533.63;;;13.42;49.20
12360;BME280;6244;51.460;7.090;2023-05-18T19:19:04;101543.25;;;13.43;49.48
12360;BME280;6244;51.460;7.090;2023-05-18T19:24:04;101544.34;;;13.20;49.89
12360;BME280;6244;51.460;7.090;2023-05-18T19:29:01;101549.84;;;13.14;50.45
12360;BME280;6244;51.460;7.090;2023-05-18T19:33:58;101547.25;;;13.33;49.98
12360;BME280;6244;51.460;7.090;2023-05-18T19:38:54;101555.66;;;13.22;49.97
12360;BME280;6244;51.460;7.090;2023-05-18T19:43:52;101560.63;;;13.09;50.57
12360;BME280;6244;51.460;7.090;2023-05-18T19:48:49;101567.81;;;13.06;51.03
12360;BME280;6244;51.460;7.090;2023-05-18T19:53:45;101572.50;;;12.99;50.60
12360;BME280;6244;51.460;7.090;2023-05-18T19:58:42;101572.50;;;12.99;50.88
12360;BME280;6244;51.460;7.090;2023-05-18T20:03:40;101577.09;;;12.96;50.92
12360;BME280;6244;51.460;7.090;2023-05-18T20:08:37;101587.00;;;12.90;52.33
12360;BME280;6244;51.460;7.090;2023-05-18T20:13:34;101588.69;;;12.91;52.65
12360;BME280;6244;51.460;7.090;2023-05-18T20:18:31;101582.91;;;12.83;52.78
12360;BME280;6244;51.460;7.090;2023-05-18T20:23:30;101586.69;;;12.78;52.68
12360;BME280;6244;51.460;7.090;2023-05-18T20:28:26;101585.78;;;12.79;52.64
12360;BME280;6244;51.460;7.090;2023-05-18T20:33:25;101587.81;;;12.72;51.94
12360;BME280;6244;51.460;7.090;2023-05-18T20:38:24;101590.03;;;12.81;52.65
12360;BME280;6244;51.460;7.090;2023-05-18T20:43:22;101594.94;;;12.70;52.63
12360;BME280;6244;51.460;7.090;2023-05-18T20:48:19;101595.34;;;12.61;52.53
12360;BME280;6244;51.460;7.090;2023-05-18T20:53:20;101587.19;;;12.47;52.75
12360;BME280;6244;51.460;7.090;2023-05-18T20:58:18;101601.59;;;12.58;53.02
12360;BME280;6244;51.460;7.090;2023-05-18T21:03:16;101602.59;;;12.56;52.67
12360;BME280;6244;51.460;7.090;2023-05-18T21:08:14;101602.66;;;12.54;52.93
12360;BME280;6244;51.460;7.090;2023-05-18T21:13:10;101598.72;;;12.24;52.60
12360;BME280;6244;51.460;7.090;2023-05-18T21:18:07;101604.91;;;12.23;53.31
12360;BME280;6244;51.460;7.090;2023-05-18T21:23:05;101611.66;;;12.08;53.58
12360;BME280;6244;51.460;7.090;2023-05-18T21:28:01;101602.84;;;12.09;53.52
12360;BME280;6244;51.460;7.090;2023-05-18T21:32:58;101603.19;;;12.22;53.96
12360;BME280;6244;51.460;7.090;2023-05-18T21:37:54;101612.84;;;12.01;53.83
12360;BME280;6244;51.460;7.090;2023-05-18T21:42:52;101616.31;;;12.01;53.81
12360;BME280;6244;51.460;7.090;2023-05-18T21:47:50;101620.41;;;12.09;53.95
12360;BME280;6244;51.460;7.090;2023-05-18T21:52:46;101611.34;;;12.16;54.08
12360;BME280;6244;51.460;7.090;2023-05-18T21:57:43;101611.28;;;12.17;54.22
12360;BME280;6244;51.460;7.090;2023-05-18T22:02:41;101611.94;;;12.22;54.29
12360;BME280;6244;51.460;7.090;2023-05-18T22:07:37;101618.50;;;12.12;54.58
12360;BME280;6244;51.460;7.090;2023-05-18T22:12:34;101611.75;;;12.07;54.55
12360;BME280;6244;51.460;7.090;2023-05-18T22:17:31;101617.06;;;12.05;54.78
12360;BME280;6244;51.460;7.090;2023-05-18T22:22:32;101609.25;;;12.03;54.73
12360;BME280;6244;51.460;7.090;2023-05-18T22:27:29;101614.59;;;12.00;54.50
12360;BME280;6244;51.460;7.090;2023-05-18T22:32:30;101610.47;;;11.95;55.04
12360;BME280;6244;51.460;7.090;2023-05-18T22:37:27;101607.28;;;11.87;54.98
12360;BME280;6244;51.460;7.090;2023-05-18T22:42:24;101602.16;;;11.84;55.57
12360;BME280;6244;51.460;7.090;2023-05-18T22:47:21;101609.41;;;11.77;55.47
12360;BME280;6244;51.460;7.090;2023-05-18T22:52:18;101611.13;;;11.78;55.48
12360;BME280;6244;51.460;7.090;2023-05-18T22:57:14;101615.50;;;11.77;55.67
12360;BME280;6244;51.460;7.090;2023-05-18T23:02:12;101610.25;;;11.79;55.74
12360;BME280;6244;51.460;7.090;2023-05-18T23:07:09;101607.81;;;11.73;55.75
12360;BME280;6244;51.460;7.090;2023-05-18T23:12:07;101613.88;;;11.75;56.11
12360;BME280;6244;51.460;7.090;2023-05-18T23:17:06;101606.19;;;11.70;56.29
12360;BME280;6244;51.460;7.090;2023-05-18T23:22:04;101613.50;;;11.62;56.30
12360;BME280;6244;51.460;7.090;2023-05-18T23:27:00;101608.44;;;11.58;56.37
12360;BME280;6244;51.460;7.090;2023-05-18T23:31:57;101599.84;;;11.54;56.18
12360;BME280;6244;51.460;7.090;2023-05-18T23:36:56;101600.63;;;11.56;56.20
12360;BME280;6244;51.460;7.090;2023-05-18T23:41:59;101595.59;;;11.50;56.64
12360;BME280;6244;51.460;7.090;2023-05-18T23:46:56;101593.75;;;11.52;56.05
12360;BME280;6244;51.460;7.090;2023-05-18T23:51:52;101588.47;;;11.54;56.64
12360;BME280;6244;51.460;7.090;2023-05-18T23:56:50;101581.19;;;11.38;56.45
